Time;durP1;ratioP1;P1;durP2;ratioP2;P2;SDS_P1;SDS_P2;PMS_P1;PMS_P2;Temp;Humidity;BMP_temperature;BMP_pressure;BME280_temperature;BME280_humidity;BME280_pressure;Samples;Min_cycle;Max_cycle;Signal;HPM_P1;HPM_P2
2022/01/22 00:01:50;;;;;;;;;;;22.30;26.20;;;;;;5089315;28;19959;-64
2022/01/22 00:04:18;;;;;;;;;;;22.30;26.30;;;;;;5091973;28;20043;-63
2022/01/22 00:06:45;;;;;;;;;;;22.30;26.30;;;;;;5089648;28;19924;-63
2022/01/22 00:09:12;;;;;;;;;;;22.30;26.30;;;;;;5091222;28;19978;-63
2022/01/22 00:11:50;;;;;;;;;;;22.30;26.30;;;;;;5089945;28;19974;-63
2022/01/22 00:14:24;;;;;;;;;;;22.30;26.30;;;;;;5091882;28;19979;-63
2022/01/22 00:16:52;;;;;;;;;;;22.20;26.30;;;;;;5089296;28;19981;-64
2022/01/22 00:19:20;;;;;;;;;;;22.30;26.30;;;;;;5091926;28;19973;-63
2022/01/22 00:21:47;;;;;;;;;;;22.30;26.30;;;;;;5088928;28;19959;-64
2022/01/22 00:24:14;;;;;;;;;;;22.20;26.30;;;;;;5091299;28;19990;-63
2022/01/22 00:26:42;;;;;;;;;;;22.30;26.40;;;;;;5088845;28;19973;-64
2022/01/22 00:32:14;;;;;;;;;;;22.30;26.40;;;;;;5088060;28;20018;-63
2022/01/22 00:34:41;;;;;;;;;;;22.20;26.40;;;;;;5091709;28;20082;-63
2022/01/22 00:37:08;;;;;;;;;;;22.20;26.40;;;;;;5088306;28;19920;-64
2022/01/22 00:39:35;;;;;;;;;;;22.20;26.40;;;;;;5091081;28;19966;-64
2022/01/22 00:42:08;;;;;;;;;;;22.20;26.40;;;;;;5070498;28;19924;-64
2022/01/22 00:44:35;;;;;;;;;;;22.20;26.40;;;;;;5091442;28;20035;-64
2022/01/22 00:47:02;;;;;;;;;;;22.20;26.40;;;;;;5088316;28;19977;-64
2022/01/22 00:49:29;;;;;;;;;;;22.20;26.90;;;;;;5091249;28;20390;-64
2022/01/22 00:51:56;;;;;;;;;;;22.20;26.40;;;;;;5087890;28;20011;-64
2022/01/22 00:54:24;;;;;;;;;;;22.20;26.40;;;;;;5091368;28;19973;-63
2022/01/22 00:56:51;;;;;;;;;;;22.10;26.40;;;;;;5104008;28;19956;-64
2022/01/22 00:59:18;;;;;;;;;;;22.20;26.50;;;;;;5090720;28;20368;-64
2022/01/22 01:01:44;;;;;;;;;;;22.20;26.50;;;;;;5088316;28;19967;-64
2022/01/22 01:07:16;;;;;;;;;;;22.20;26.50;;;;;;5087290;28;20007;-64
2022/01/22 01:09:43;;;;;;;;;;;22.10;26.50;;;;;;5091664;28;19920;-64
2022/01/22 01:12:12;;;;;;;;;;;22.10;26.50;;;;;;5087352;28;20411;-64
2022/01/22 01:14:46;;;;;;;;;;;22.10;26.50;;;;;;5090442;28;19920;-64
2022/01/22 01:17:46;;;;;;;;;;;22.10;26.50;;;;;;5087114;28;19965;-64
2022/01/22 01:33:59;;;;;;;;;;;22.10;26.50;;;;;;5089544;28;19932;-64
2022/01/22 01:36:26;;;;;;;;;;;22.10;26.50;;;;;;5088023;28;19946;-64
2022/01/22 01:38:58;;;;;;;;;;;22.10;26.90;;;;;;5089390;28;20011;-64
2022/01/22 01:41:38;;;;;;;;;;;22.10;26.50;;;;;;5088386;28;19920;-64
2022/01/22 01:44:05;;;;;;;;;;;22.10;26.50;;;;;;5089304;28;20003;-64
2022/01/22 01:46:44;;;;;;;;;;;22.10;26.50;;;;;;5090922;28;20047;-64
2022/01/22 01:49:11;;;;;;;;;;;22.10;26.50;;;;;;5089593;28;19931;-64
2022/01/22 01:51:39;;;;;;;;;;;22.10;26.50;;;;;;5088232;28;19963;-64
2022/01/22 01:54:24;;;;;;;;;;;22.10;26.50;;;;;;5089290;28;20013;-65
2022/01/22 01:59:42;;;;;;;;;;;22.10;26.50;;;;;;5090411;28;20460;-64
2022/01/22 02:02:09;;;;;;;;;;;22.10;26.50;;;;;;5086366;28;19920;-64
2022/01/22 02:04:36;;;;;;;;;;;22.10;26.60;;;;;;5090097;28;20389;-64
2022/01/22 02:07:04;;;;;;;;;;;22.10;26.60;;;;;;5085966;28;19963;-63
2022/01/22 02:09:32;;;;;;;;;;;22.10;26.60;;;;;;5089989;28;19956;-64
2022/01/22 02:12:05;;;;;;;;;;;22.10;26.60;;;;;;5087016;28;19967;-63
2022/01/22 02:25:33;;;;;;;;;;;22.00;26.60;;;;;;5088677;28;20255;-64
2022/01/22 02:31:32;;;;;;;;;;;22.00;26.60;;;;;;5087539;28;19915;-64
2022/01/22 02:34:17;;;;;;;;;;;22.00;26.60;;;;;;5088508;28;20390;-64
2022/01/22 02:37:03;;;;;;;;;;;22.00;27.00;;;;;;5086420;28;19977;-64
2022/01/22 02:39:57;;;;;;;;;;;22.00;26.60;;;;;;5089154;28;19988;-64
2022/01/22 02:42:23;;;;;;;;;;;22.00;26.60;;;;;;5086252;28;20400;-64
2022/01/22 02:44:50;;;;;;;;;;;22.00;26.60;;;;;;5089395;28;19927;-64
2022/01/22 02:47:18;;;;;;;;;;;22.00;26.60;;;;;;5086288;28;20467;-64
2022/01/22 02:49:45;;;;;;;;;;;22.00;26.60;;;;;;5089602;28;19972;-64
2022/01/22 02:52:12;;;;;;;;;;;22.00;26.60;;;;;;5085992;28;19959;-64
2022/01/22 02:54:39;;;;;;;;;;;22.00;26.60;;;;;;5089392;28;20426;-64
2022/01/22 02:57:08;;;;;;;;;;;22.00;26.60;;;;;;5086395;28;20010;-64
2022/01/22 02:59:35;;;;;;;;;;;22.00;26.70;;;;;;5089378;28;20304;-64
2022/01/22 03:02:03;;;;;;;;;;;22.00;26.70;;;;;;5085879;28;19924;-64
2022/01/22 03:04:48;;;;;;;;;;;22.00;26.70;;;;;;5089183;28;20022;-64
2022/01/22 03:07:15;;;;;;;;;;;22.00;26.70;;;;;;5085590;28;20006;-64
2022/01/22 03:09:45;;;;;;;;;;;22.00;26.70;;;;;;5089670;28;19971;-64
2022/01/22 03:12:46;;;;;;;;;;;22.00;26.60;;;;;;5086192;28;20023;-64
2022/01/22 03:17:55;;;;;;;;;;;22.00;26.60;;;;;;5086658;28;19931;-64
2022/01/22 03:27:20;;;;;;;;;;;22.00;26.60;;;;;;5086845;28;19924;-64
2022/01/22 03:29:01;;;;;;;;;;;22.00;26.60;;;;;;5088034;28;20423;-64
2022/01/22 03:31:28;;;;;;;;;;;22.00;26.60;;;;;;5086683;28;20015;-64
2022/01/22 03:33:55;;;;;;;;;;;22.00;26.60;;;;;;5087738;28;20011;-64
2022/01/22 03:36:23;;;;;;;;;;;22.00;26.60;;;;;;5087183;28;19994;-66
2022/01/22 03:38:50;;;;;;;;;;;22.00;26.60;;;;;;5090063;28;19982;-64
2022/01/22 03:41:17;;;;;;;;;;;22.00;26.60;;;;;;5091040;28;19920;-64
2022/01/22 03:43:44;;;;;;;;;;;22.00;26.60;;;;;;5091212;28;20376;-64
2022/01/22 03:46:11;;;;;;;;;;;22.00;26.60;;;;;;5090942;28;19989;-64
2022/01/22 03:52:00;;;;;;;;;;;22.00;26.70;;;;;;5089078;28;20406;-63
2022/01/22 03:54:27;;;;;;;;;;;22.00;26.60;;;;;;5091363;28;19923;-64
2022/01/22 03:56:54;;;;;;;;;;;22.00;26.60;;;;;;5089065;28;19985;-64
2022/01/22 03:59:21;;;;;;;;;;;22.00;26.60;;;;;;5092100;28;20350;-64
2022/01/22 04:02:23;;;;;;;;;;;22.00;26.70;;;;;;5089549;28;20395;-64
2022/01/22 04:04:39;;;;;;;;;;;21.90;26.60;;;;;;5091906;28;20285;-63
2022/01/22 04:09:57;;;;;;;;;;;21.90;26.60;;;;;;5092407;28;19967;-64
2022/01/22 04:12:37;;;;;;;;;;;21.90;26.60;;;;;;5089238;28;20288;-64
2022/01/22 04:15:06;;;;;;;;;;;21.90;26.60;;;;;;5091989;28;20008;-64
2022/01/22 04:24:49;;;;;;;;;;;21.90;26.70;;;;;;5089050;28;19920;-64
2022/01/22 04:26:42;;;;;;;;;;;21.90;26.70;;;;;;5089404;28;20265;-64
2022/01/22 04:29:09;;;;;;;;;;;21.90;26.70;;;;;;5091264;28;20422;-64
2022/01/22 04:31:36;;;;;;;;;;;21.90;26.70;;;;;;5088871;28;20159;-64
2022/01/22 04:34:03;;;;;;;;;;;21.90;26.70;;;;;;5090744;28;19920;-64
2022/01/22 04:36:30;;;;;;;;;;;21.90;26.70;;;;;;5089303;28;20270;-63
2022/01/22 04:38:57;;;;;;;;;;;21.90;26.70;;;;;;5090886;28;19987;-63
2022/01/22 04:41:24;;;;;;;;;;;21.90;26.70;;;;;;5089397;28;19959;-63
2022/01/22 04:43:57;;;;;;;;;;;21.90;26.70;;;;;;5090282;28;20396;-64
2022/01/22 04:46:37;;;;;;;;;;;21.90;26.70;;;;;;5089421;28;20360;-64
2022/01/22 04:49:18;;;;;;;;;;;21.90;26.70;;;;;;5090184;28;19924;-63
2022/01/22 04:57:19;;;;;;;;;;;21.90;26.70;;;;;;5087674;28;19959;-63
2022/01/22 04:59:46;;;;;;;;;;;21.90;26.70;;;;;;5091361;28;19924;-64
2022/01/22 05:02:13;;;;;;;;;;;21.90;26.70;;;;;;5087521;28;19946;-63
2022/01/22 05:04:40;;;;;;;;;;;21.90;26.70;;;;;;5091644;28;20335;-63
2022/01/22 05:07:07;;;;;;;;;;;21.90;26.70;;;;;;5087029;28;20016;-63
2022/01/22 05:09:49;;;;;;;;;;;21.90;26.70;;;;;;5090635;28;20406;-64
2022/01/22 05:12:16;;;;;;;;;;;21.90;26.70;;;;;;5087779;28;20388;-64
2022/01/22 05:14:43;;;;;;;;;;;21.90;26.70;;;;;;5091046;28;20026;-64
2022/01/22 05:17:10;;;;;;;;;;;21.90;26.70;;;;;;5087506;28;19963;-63
2022/01/22 05:19:49;;;;;;;;;;;21.90;26.70;;;;;;5090956;28;19924;-64
2022/01/22 05:22:48;;;;;;;;;;;21.90;26.70;;;;;;5086351;28;19930;-64
2022/01/22 05:25:10;;;;;;;;;;;21.90;26.60;;;;;;5090521;28;19926;-64
2022/01/22 05:27:56;;;;;;;;;;;21.90;26.70;;;;;;5086961;28;20055;-63
2022/01/22 05:33:30;;;;;;;;;;;21.90;26.70;;;;;;5088213;28;20005;-63
2022/01/22 05:38:44;;;;;;;;;;;21.90;26.70;;;;;;5089179;28;20036;-63
2022/01/22 05:41:12;;;;;;;;;;;21.90;26.70;;;;;;5088700;28;20110;-63
2022/01/22 05:43:39;;;;;;;;;;;21.90;26.70;;;;;;5088830;28;20430;-63
2022/01/22 05:46:06;;;;;;;;;;;21.90;26.70;;;;;;5088658;28;19966;-63
2022/01/22 05:48:33;;;;;;;;;;;21.90;26.70;;;;;;5089238;28;20007;-63
2022/01/22 05:51:03;;;;;;;;;;;21.90;26.70;;;;;;5086642;28;20003;-64
2022/01/22 05:59:49;;;;;;;;;;;21.90;26.80;;;;;;5069988;28;20328;-64
2022/01/22 06:02:16;;;;;;;;;;;21.90;26.80;;;;;;5084325;28;19965;-63
2022/01/22 06:04:44;;;;;;;;;;;21.80;26.70;;;;;;5089363;28;19978;-63
2022/01/22 06:07:12;;;;;;;;;;;21.80;26.70;;;;;;5085589;28;20377;-63
2022/01/22 06:09:51;;;;;;;;;;;21.80;26.80;;;;;;5090261;28;19923;-63
2022/01/22 06:12:32;;;;;;;;;;;21.80;26.80;;;;;;5086449;28;20329;-63
2022/01/22 06:14:59;;;;;;;;;;;21.80;26.80;;;;;;5089709;28;19976;-63
2022/01/22 06:17:26;;;;;;;;;;;21.80;26.80;;;;;;5086761;28;19974;-63
2022/01/22 06:19:53;;;;;;;;;;;21.80;26.70;;;;;;5089865;28;19920;-63
2022/01/22 06:22:20;;;;;;;;;;;21.80;26.70;;;;;;5084760;28;20404;-63
2022/01/22 06:24:47;;;;;;;;;;;21.80;26.70;;;;;;5090261;28;19923;-62
2022/01/22 06:27:14;;;;;;;;;;;21.80;26.70;;;;;;5091056;28;20311;-64
2022/01/22 06:29:41;;;;;;;;;;;21.80;26.60;;;;;;5091204;28;19978;-63
2022/01/22 06:32:08;;;;;;;;;;;21.80;26.60;;;;;;5088408;28;19931;-63
2022/01/22 06:34:35;;;;;;;;;;;21.80;26.60;;;;;;5105563;28;19945;-63
2022/01/22 06:37:02;;;;;;;;;;;21.90;26.60;;;;;;5086920;28;20377;-63
2022/01/22 06:41:44;;;;;;;;;;;21.90;26.60;;;;;;5090513;28;19967;-63
2022/01/22 06:42:38;;;;;;;;;;;21.90;26.60;;;;;;5088179;28;20007;-62
2022/01/22 06:45:05;;;;;;;;;;;22.00;26.60;;;;;;5090964;28;19994;-63
2022/01/22 06:47:32;;;;;;;;;;;22.00;26.60;;;;;;5091176;28;20370;-63
2022/01/22 06:49:59;;;;;;;;;;;22.10;26.60;;;;;;5090615;28;20044;-63
2022/01/22 06:52:27;;;;;;;;;;;22.10;26.50;;;;;;5087590;28;19919;-63
2022/01/22 06:54:54;;;;;;;;;;;22.20;26.50;;;;;;5106784;28;19920;-66
2022/01/22 06:57:20;;;;;;;;;;;22.20;26.50;;;;;;5090500;28;19920;-63
2022/01/22 06:59:49;;;;;;;;;;;22.20;26.40;;;;;;5090699;28;19927;-63
2022/01/22 07:02:17;;;;;;;;;;;22.30;26.40;;;;;;5087584;28;20325;-63
2022/01/22 07:04:45;;;;;;;;;;;22.30;26.40;;;;;;5090936;28;19962;-63
2022/01/22 07:07:12;;;;;;;;;;;22.40;26.40;;;;;;5090216;28;20410;-63
2022/01/22 07:09:39;;;;;;;;;;;22.40;26.30;;;;;;5090333;28;19971;-63
2022/01/22 07:12:06;;;;;;;;;;;22.40;26.30;;;;;;5088433;28;20329;-63
2022/01/22 07:14:33;;;;;;;;;;;22.50;26.30;;;;;;5093647;28;19919;-63
2022/01/22 07:17:00;;;;;;;;;;;22.50;26.20;;;;;;5094512;28;19979;-63
2022/01/22 07:19:27;;;;;;;;;;;22.50;26.20;;;;;;5095047;28;19970;-63
2022/01/22 07:22:20;;;;;;;;;;;22.60;26.20;;;;;;5091867;28;19971;-63
2022/01/22 07:24:41;;;;;;;;;;;22.60;26.20;;;;;;5094175;28;20315;-63
2022/01/22 07:27:08;;;;;;;;;;;22.70;26.20;;;;;;5094303;28;19967;-63
2022/01/22 07:29:35;;;;;;;;;;;22.70;26.10;;;;;;5094830;28;20015;-63
2022/01/22 07:32:05;;;;;;;;;;;22.70;26.00;;;;;;5092339;28;19924;-64
2022/01/22 07:34:32;;;;;;;;;;;22.80;26.00;;;;;;5075842;28;20369;-62
2022/01/22 07:37:02;;;;;;;;;;;22.80;26.00;;;;;;5093885;28;19967;-62
2022/01/22 07:39:29;;;;;;;;;;;22.90;25.90;;;;;;5094343;28;19977;-63
2022/01/22 07:41:56;;;;;;;;;;;22.90;25.90;;;;;;5092852;28;19955;-62
2022/01/22 07:44:23;;;;;;;;;;;22.90;25.90;;;;;;5093725;28;19931;-63
2022/01/22 07:46:50;;;;;;;;;;;22.90;25.80;;;;;;5093539;28;19920;-63
2022/01/22 07:49:19;;;;;;;;;;;23.00;25.80;;;;;;5094374;28;19943;-63
2022/01/22 07:51:46;;;;;;;;;;;23.10;25.80;;;;;;5092716;28;20377;-63
2022/01/22 07:54:13;;;;;;;;;;;23.10;25.80;;;;;;5093481;28;19973;-63
2022/01/22 07:56:40;;;;;;;;;;;23.10;25.80;;;;;;5093736;28;20014;-63
2022/01/22 07:59:07;;;;;;;;;;;23.20;25.80;;;;;;5094224;28;20015;-64
2022/01/22 08:01:34;;;;;;;;;;;23.20;25.70;;;;;;5093119;28;20010;-63
2022/01/22 08:04:01;;;;;;;;;;;23.20;25.70;;;;;;5092700;28;19959;-63
2022/01/22 08:06:28;;;;;;;;;;;23.30;25.70;;;;;;5093279;28;19977;-63
2022/01/22 08:08:55;;;;;;;;;;;23.30;25.70;;;;;;5093539;28;19962;-63
2022/01/22 08:11:22;;;;;;;;;;;23.30;25.60;;;;;;5093046;28;20026;-63
2022/01/22 08:13:49;;;;;;;;;;;23.40;25.60;;;;;;5092651;28;20471;-63
2022/01/22 08:16:16;;;;;;;;;;;23.40;25.60;;;;;;5093369;28;19967;-63
2022/01/22 08:18:43;;;;;;;;;;;23.40;25.60;;;;;;5093407;28;20038;-63
2022/01/22 08:21:10;;;;;;;;;;;23.50;25.60;;;;;;5092685;28;19932;-64
2022/01/22 08:23:37;;;;;;;;;;;23.50;25.50;;;;;;5091883;28;19920;-63
2022/01/22 08:26:08;;;;;;;;;;;23.50;25.50;;;;;;5107850;28;20430;-63
2022/01/22 08:31:44;;;;;;;;;;;23.60;25.50;;;;;;5092320;28;20006;-63
2022/01/22 08:36:56;;;;;;;;;;;23.70;25.40;;;;;;5092954;28;19920;-63
2022/01/22 08:39:23;;;;;;;;;;;23.70;25.40;;;;;;5093346;28;19978;-63
2022/01/22 08:41:53;;;;;;;;;;;23.80;25.40;;;;;;5091789;28;20426;-63
2022/01/22 08:44:20;;;;;;;;;;;23.80;25.30;;;;;;5092227;28;20012;-63
2022/01/22 08:46:47;;;;;;;;;;;23.80;25.30;;;;;;5092521;28;19974;-63
2022/01/22 08:49:14;;;;;;;;;;;23.80;25.30;;;;;;5092906;28;19919;-64
2022/01/22 08:51:41;;;;;;;;;;;23.90;25.30;;;;;;5091627;28;19973;-63
2022/01/22 08:54:09;;;;;;;;;;;24.00;25.70;;;;;;5091479;28;19920;-62
2022/01/22 08:56:38;;;;;;;;;;;24.00;25.20;;;;;;5092820;28;19920;-63
2022/01/22 08:59:05;;;;;;;;;;;24.10;25.20;;;;;;5093054;28;19988;-63
2022/01/22 09:01:32;;;;;;;;;;;24.10;25.10;;;;;;5091833;28;19970;-63
2022/01/22 09:03:59;;;;;;;;;;;24.20;25.10;;;;;;5091921;28;19924;-63
2022/01/22 09:06:28;;;;;;;;;;;24.20;25.10;;;;;;5092129;28;19927;-63
2022/01/22 09:09:05;;;;;;;;;;;24.30;25.00;;;;;;5091650;28;19946;-63
2022/01/22 09:11:32;;;;;;;;;;;24.40;25.00;;;;;;5091855;28;19977;-62
2022/01/22 09:13:59;;;;;;;;;;;24.40;25.00;;;;;;5091194;28;19970;-64
2022/01/22 09:16:26;;;;;;;;;;;24.50;24.90;;;;;;5108038;28;20261;-64
2022/01/22 09:18:54;;;;;;;;;;;24.60;24.90;;;;;;5092399;28;20026;-63
2022/01/22 09:21:22;;;;;;;;;;;24.70;24.90;;;;;;5091239;28;19924;-63
2022/01/22 09:23:49;;;;;;;;;;;24.70;24.90;;;;;;5090472;28;19974;-64
2022/01/22 09:26:16;;;;;;;;;;;24.70;24.80;;;;;;5092357;28;19920;-64
2022/01/22 09:28:43;;;;;;;;;;;24.90;24.80;;;;;;5092337;28;20007;-64
2022/01/22 09:31:11;;;;;;;;;;;24.90;24.80;;;;;;5107427;28;20023;-63
2022/01/22 09:33:39;;;;;;;;;;;24.90;24.70;;;;;;5090245;28;19924;-63
2022/01/22 09:36:08;;;;;;;;;;;25.00;24.70;;;;;;5091168;28;19920;-63
2022/01/22 09:38:35;;;;;;;;;;;25.10;24.70;;;;;;5091949;28;19951;-63
2022/01/22 09:41:03;;;;;;;;;;;25.10;24.70;;;;;;5091740;28;20463;-64
2022/01/22 09:43:30;;;;;;;;;;;25.30;24.70;;;;;;5090504;28;19920;-63
2022/01/22 09:45:57;;;;;;;;;;;25.30;24.60;;;;;;5092012;28;20288;-63
2022/01/22 09:48:24;;;;;;;;;;;25.40;24.60;;;;;;5091578;28;19975;-63
2022/01/22 09:50:51;;;;;;;;;;;25.40;24.60;;;;;;5072782;28;19920;-63
2022/01/22 09:53:19;;;;;;;;;;;25.50;24.60;;;;;;5088424;28;20011;-63
2022/01/22 09:55:46;;;;;;;;;;;25.50;24.60;;;;;;5090408;28;20408;-63
2022/01/22 09:58:13;;;;;;;;;;;25.50;24.50;;;;;;5088110;28;20135;-63
2022/01/22 10:01:05;;;;;;;;;;;25.50;24.50;;;;;;5088878;28;19920;-63
2022/01/22 10:03:37;;;;;;;;;;;25.60;24.60;;;;;;5088229;28;19920;-63
2022/01/22 10:06:12;;;;;;;;;;;25.60;24.50;;;;;;5090066;28;19939;-63
2022/01/22 10:08:39;;;;;;;;;;;25.60;24.50;;;;;;5088434;28;20304;-63
2022/01/22 10:11:15;;;;;;;;;;;25.60;24.50;;;;;;5087835;28;19920;-63
2022/01/22 10:13:46;;;;;;;;;;;25.60;24.50;;;;;;5088661;28;19943;-63
2022/01/22 10:16:27;;;;;;;;;;;25.50;24.90;;;;;;5089698;28;19927;-63
2022/01/22 10:19:15;;;;;;;;;;;25.50;24.50;;;;;;5088841;28;20080;-63
2022/01/22 10:21:44;;;;;;;;;;;25.50;24.60;;;;;;5086941;28;19927;-63
2022/01/22 10:24:39;;;;;;;;;;;25.50;24.60;;;;;;5089400;28;19973;-63
2022/01/22 10:27:22;;;;;;;;;;;25.40;24.60;;;;;;5088195;28;19920;-63
2022/01/22 10:29:52;;;;;;;;;;;25.50;24.60;;;;;;5089027;28;20018;-63
2022/01/22 10:32:25;;;;;;;;;;;25.40;24.60;;;;;;5087078;28;19924;-65
2022/01/22 10:35:02;;;;;;;;;;;25.40;24.60;;;;;;5089861;28;20299;-63
2022/01/22 10:37:29;;;;;;;;;;;25.40;24.60;;;;;;5087156;28;20404;-66
2022/01/22 10:40:16;;;;;;;;;;;25.40;24.60;;;;;;5089442;28;19920;-63
2022/01/22 10:46:20;;;;;;;;;;;25.40;24.70;;;;;;5089874;28;20365;-63
2022/01/22 10:48:58;;;;;;;;;;;25.40;24.70;;;;;;5087610;28;20003;-63
2022/01/22 10:51:25;;;;;;;;;;;25.30;24.70;;;;;;5086652;28;20373;-63
2022/01/22 10:53:56;;;;;;;;;;;25.30;24.70;;;;;;5088176;28;20329;-63
2022/01/22 10:56:23;;;;;;;;;;;25.30;24.80;;;;;;5088990;28;19920;-63
2022/01/22 10:58:54;;;;;;;;;;;25.30;24.80;;;;;;5088230;28;19927;-63
2022/01/22 11:01:21;;;;;;;;;;;25.30;24.90;;;;;;5086792;28;19963;-63
2022/01/22 11:04:04;;;;;;;;;;;25.30;24.90;;;;;;5088084;28;20405;-63
2022/01/22 11:06:31;;;;;;;;;;;25.30;24.90;;;;;;5088600;28;19970;-63
2022/01/22 11:08:59;;;;;;;;;;;25.30;24.90;;;;;;5088113;28;19973;-63
2022/01/22 11:11:26;;;;;;;;;;;25.30;24.90;;;;;;5086861;28;20458;-63
2022/01/22 11:13:53;;;;;;;;;;;25.30;24.90;;;;;;5087976;28;20319;-63
2022/01/22 11:16:20;;;;;;;;;;;25.20;24.90;;;;;;5089401;28;19924;-63
2022/01/22 11:19:11;;;;;;;;;;;25.20;24.90;;;;;;5088275;28;19920;-63
2022/01/22 11:21:41;;;;;;;;;;;25.20;24.90;;;;;;5086716;28;20356;-64
2022/01/22 11:24:11;;;;;;;;;;;25.20;25.00;;;;;;5087299;28;19967;-63
2022/01/22 11:26:39;;;;;;;;;;;25.20;25.00;;;;;;5088257;28;19927;-63
2022/01/22 11:29:06;;;;;;;;;;;25.10;25.00;;;;;;5087946;28;19963;-63
2022/01/22 11:31:34;;;;;;;;;;;25.10;25.00;;;;;;5086456;28;19950;-63
2022/01/22 11:34:02;;;;;;;;;;;25.10;25.00;;;;;;5088144;28;19966;-63
2022/01/22 11:36:32;;;;;;;;;;;25.10;25.10;;;;;;5088664;28;20307;-62
2022/01/22 11:42:22;;;;;;;;;;;25.00;25.10;;;;;;5086027;28;19919;-62
2022/01/22 11:45:01;;;;;;;;;;;25.00;25.10;;;;;;5089398;28;20113;-62
2022/01/22 11:47:28;;;;;;;;;;;24.90;25.10;;;;;;5087037;28;19981;-62
2022/01/22 11:50:09;;;;;;;;;;;24.90;25.10;;;;;;5088307;28;19964;-62
2022/01/22 11:56:22;;;;;;;;;;;24.80;25.20;;;;;;5088611;28;19935;-63
2022/01/22 11:59:06;;;;;;;;;;;24.70;25.20;;;;;;5088295;28;19985;-63
2022/01/22 12:01:54;;;;;;;;;;;24.70;25.30;;;;;;5089920;28;19963;-62
2022/01/22 12:04:25;;;;;;;;;;;24.70;25.30;;;;;;5091688;28;19927;-62
2022/01/22 12:07:12;;;;;;;;;;;24.70;25.30;;;;;;5091260;28;20297;-63
2022/01/22 12:10:15;;;;;;;;;;;24.60;25.40;;;;;;5092024;28;19920;-62
2022/01/22 12:15:50;;;;;;;;;;;24.60;25.40;;;;;;5092694;28;19973;-62
2022/01/22 12:21:39;;;;;;;;;;;24.50;25.40;;;;;;5090024;28;20368;-63
2022/01/22 12:24:10;;;;;;;;;;;24.50;25.40;;;;;;5091464;28;20395;-63
2022/01/22 12:26:42;;;;;;;;;;;24.50;25.50;;;;;;5091887;28;19920;-63
2022/01/22 12:29:29;;;;;;;;;;;24.50;25.50;;;;;;5090795;28;19920;-63
2022/01/22 12:32:17;;;;;;;;;;;24.40;25.50;;;;;;5089257;28;19920;-63
2022/01/22 12:34:52;;;;;;;;;;;24.40;25.60;;;;;;5092168;28;20007;-63
2022/01/22 12:37:20;;;;;;;;;;;24.40;25.60;;;;;;5090492;28;19920;-63
2022/01/22 12:39:51;;;;;;;;;;;24.30;25.50;;;;;;5091049;28;20023;-63
2022/01/22 12:42:31;;;;;;;;;;;24.30;25.60;;;;;;5089199;28;20262;-63
2022/01/22 12:45:05;;;;;;;;;;;24.30;25.60;;;;;;5091152;28;19920;-63
2022/01/22 12:47:33;;;;;;;;;;;24.30;25.60;;;;;;5090246;28;20112;-63
2022/01/22 12:50:05;;;;;;;;;;;24.30;25.60;;;;;;5091053;28;19920;-63
2022/01/22 12:56:35;;;;;;;;;;;24.20;25.60;;;;;;5091725;28;20406;-63
2022/01/22 12:58:59;;;;;;;;;;;24.20;25.60;;;;;;5089935;28;19978;-63
2022/01/22 13:01:29;;;;;;;;;;;24.20;25.70;;;;;;5087795;28;19942;-63
2022/01/22 13:03:57;;;;;;;;;;;24.10;25.60;;;;;;5090220;28;19927;-63
2022/01/22 13:06:26;;;;;;;;;;;24.10;25.60;;;;;;5090959;28;19971;-63
2022/01/22 13:08:57;;;;;;;;;;;24.10;25.70;;;;;;5089638;28;19981;-63
2022/01/22 13:11:24;;;;;;;;;;;24.10;25.70;;;;;;5088077;28;20361;-63
2022/01/22 13:13:51;;;;;;;;;;;24.10;25.70;;;;;;5089767;28;19967;-63
2022/01/22 13:16:18;;;;;;;;;;;24.10;25.70;;;;;;5091069;28;20026;-63
2022/01/22 13:18:56;;;;;;;;;;;24.00;25.70;;;;;;5088291;28;19924;-63
2022/01/22 13:21:25;;;;;;;;;;;24.00;25.70;;;;;;5088940;28;19989;-63
2022/01/22 13:24:07;;;;;;;;;;;24.00;25.80;;;;;;5089573;28;20343;-63
2022/01/22 13:26:38;;;;;;;;;;;24.00;25.70;;;;;;5090549;28;19924;-63
2022/01/22 13:29:23;;;;;;;;;;;24.00;25.70;;;;;;5089597;28;19920;-63
2022/01/22 13:31:56;;;;;;;;;;;23.90;25.70;;;;;;5087848;28;20070;-63
2022/01/22 13:34:35;;;;;;;;;;;23.90;25.70;;;;;;5090375;28;19920;-63
2022/01/22 13:51:48;;;;;;;;;;;23.80;25.70;;;;;;5088418;28;19915;-63
2022/01/22 13:54:16;;;;;;;;;;;23.80;25.70;;;;;;5089383;28;19943;-63
2022/01/22 13:56:50;;;;;;;;;;;23.80;25.70;;;;;;5089640;28;20007;-63
2022/01/22 13:59:22;;;;;;;;;;;23.80;25.70;;;;;;5089003;28;19920;-63
2022/01/22 14:02:04;;;;;;;;;;;23.80;25.70;;;;;;5087707;28;20456;-63
2022/01/22 14:04:39;;;;;;;;;;;23.80;25.70;;;;;;5089980;28;19920;-63
2022/01/22 14:07:17;;;;;;;;;;;23.80;25.70;;;;;;5088827;28;20369;-63
2022/01/22 14:10:04;;;;;;;;;;;23.70;25.60;;;;;;5089203;28;20014;-63
2022/01/22 14:16:19;;;;;;;;;;;23.70;25.60;;;;;;5090447;28;19994;-63
2022/01/22 14:18:46;;;;;;;;;;;23.70;25.60;;;;;;5070543;28;19924;-63
2022/01/22 14:21:17;;;;;;;;;;;23.70;25.60;;;;;;5088504;28;19991;-63
2022/01/22 14:23:45;;;;;;;;;;;23.70;25.60;;;;;;5088447;28;20015;-63
2022/01/22 14:26:29;;;;;;;;;;;23.60;25.60;;;;;;5090262;28;19927;-63
2022/01/22 14:29:01;;;;;;;;;;;23.60;25.60;;;;;;5088189;28;19951;-63
2022/01/22 14:31:33;;;;;;;;;;;23.60;25.60;;;;;;5087448;28;20019;-63
2022/01/22 14:34:02;;;;;;;;;;;23.60;25.70;;;;;;5089004;28;19931;-63
2022/01/22 14:36:31;;;;;;;;;;;23.50;25.60;;;;;;5088985;28;19971;-63
2022/01/22 14:39:27;;;;;;;;;;;23.50;25.60;;;;;;5089136;28;19919;-63
2022/01/22 14:44:50;;;;;;;;;;;23.50;25.60;;;;;;5089639;28;20030;-63
2022/01/22 14:47:21;;;;;;;;;;;23.50;25.50;;;;;;5088132;28;19955;-63
2022/01/22 14:49:52;;;;;;;;;;;23.40;25.40;;;;;;5089018;28;19956;-63
2022/01/22 14:52:21;;;;;;;;;;;23.50;25.50;;;;;;5086819;28;20000;-63
2022/01/22 14:54:49;;;;;;;;;;;23.40;25.90;;;;;;5089655;28;19920;-62
2022/01/22 14:57:19;;;;;;;;;;;23.40;25.40;;;;;;5087745;28;19920;-62
2022/01/22 14:59:46;;;;;;;;;;;23.40;25.40;;;;;;5088841;28;19924;-63
2022/01/22 15:02:15;;;;;;;;;;;23.30;25.30;;;;;;5086792;28;20369;-63
2022/01/22 15:04:43;;;;;;;;;;;23.30;25.30;;;;;;5089736;28;19973;-62
2022/01/22 15:07:11;;;;;;;;;;;23.30;25.30;;;;;;5087967;28;19920;-62
2022/01/22 15:09:39;;;;;;;;;;;23.30;25.30;;;;;;5088877;28;19959;-62
2022/01/22 15:12:08;;;;;;;;;;;23.20;25.30;;;;;;5086778;28;19985;-62
2022/01/22 15:14:35;;;;;;;;;;;23.20;25.30;;;;;;5088236;28;19920;-63
2022/01/22 15:17:26;;;;;;;;;;;23.20;25.30;;;;;;5087816;28;19927;-62
2022/01/22 15:19:51;;;;;;;;;;;23.20;25.30;;;;;;5088471;28;20015;-62
2022/01/22 15:22:23;;;;;;;;;;;23.20;25.30;;;;;;5086418;28;20025;-63
2022/01/22 15:24:50;;;;;;;;;;;23.10;25.30;;;;;;5089522;28;19927;-63
2022/01/22 15:27:18;;;;;;;;;;;23.10;25.30;;;;;;5087390;28;20007;-63
2022/01/22 15:35:20;;;;;;;;;;;23.00;25.30;;;;;;5092971;28;19919;-62
2022/01/22 15:41:22;;;;;;;;;;;23.00;25.40;;;;;;5090394;28;19914;-63
2022/01/22 15:43:49;;;;;;;;;;;22.90;25.40;;;;;;5091926;28;20092;-62
2022/01/22 15:46:16;;;;;;;;;;;22.90;25.40;;;;;;5092816;28;19926;-64
2022/01/22 15:48:46;;;;;;;;;;;22.90;25.40;;;;;;5091107;28;19943;-63
2022/01/22 15:51:13;;;;;;;;;;;22.90;25.50;;;;;;5090716;28;20005;-62
2022/01/22 15:57:05;;;;;;;;;;;22.80;25.40;;;;;;5091071;28;20019;-62
2022/01/22 15:59:32;;;;;;;;;;;22.80;25.40;;;;;;5091784;28;20019;-63
2022/01/22 16:01:59;;;;;;;;;;;22.80;25.40;;;;;;5090479;28;20023;-62
2022/01/22 16:04:26;;;;;;;;;;;22.80;25.50;;;;;;5092440;28;19981;-62
2022/01/22 16:07:02;;;;;;;;;;;22.80;25.50;;;;;;5106781;28;20028;-62
2022/01/22 16:09:33;;;;;;;;;;;22.80;25.50;;;;;;5091676;28;20340;-62
2022/01/22 16:12:14;;;;;;;;;;;22.70;25.50;;;;;;5089198;28;19985;-63
2022/01/22 16:14:47;;;;;;;;;;;22.70;25.50;;;;;;5075198;28;19923;-62
2022/01/22 16:17:17;;;;;;;;;;;22.70;25.50;;;;;;5090756;28;19955;-62
2022/01/22 16:19:45;;;;;;;;;;;22.70;25.50;;;;;;5091603;28;19923;-62
2022/01/22 16:22:12;;;;;;;;;;;22.70;25.50;;;;;;5089293;28;20354;-62
2022/01/22 16:24:39;;;;;;;;;;;22.70;25.50;;;;;;5091949;28;19970;-62
2022/01/22 16:27:06;;;;;;;;;;;22.60;25.40;;;;;;5090545;28;20011;-62
2022/01/22 16:36:31;;;;;;;;;;;22.50;25.40;;;;;;5091009;28;20049;-62
2022/01/22 16:38:58;;;;;;;;;;;22.50;25.40;;;;;;5090554;28;20024;-63
2022/01/22 16:41:25;;;;;;;;;;;22.50;25.80;;;;;;5089653;28;19951;-62
2022/01/22 16:43:58;;;;;;;;;;;22.50;25.40;;;;;;5089965;28;20018;-62
2022/01/22 16:46:35;;;;;;;;;;;22.50;25.40;;;;;;5090572;28;20060;-64
2022/01/22 16:52:08;;;;;;;;;;;22.40;25.40;;;;;;5088655;28;19989;-62
2022/01/22 16:54:45;;;;;;;;;;;22.40;25.40;;;;;;5091287;28;20359;-62
2022/01/22 16:57:20;;;;;;;;;;;22.40;25.40;;;;;;5090188;28;19926;-62
2022/01/22 16:59:53;;;;;;;;;;;22.40;25.40;;;;;;5090848;28;20336;-62
2022/01/22 17:02:26;;;;;;;;;;;22.40;25.40;;;;;;5087875;28;20022;-62
2022/01/22 17:04:55;;;;;;;;;;;22.40;25.40;;;;;;5073887;28;19920;-62